Huvudsida
METAR-TAF:

METAR-TAF

Flygplatser :

Helsingfors, Finland

Helsingfors-Vanda flygplats

latitud: 60-19N, longitud: 024-58E, höjd: 51 m

Aktuellt väderrapport

Denna rapport gjordes för 26 minuter sedan, klockan 14:50 UTC
Vind 21 kt från väst
Temperatur 12°C
Fuktighet 50%
Tryck 1002 hPa
Sikt 10 km eller mer
Spridda moln på en höjd av 4500 ft

METAR: EFHK 211450Z 28021KT 9999 SCT045 12/02 Q1002 NOSIG

Tid: 18:16 (15:16 UTC)

Väderprognos

Denna rapport gjordes för 45 minuter sedan, klockan 14:31 UTC
Prognos gäller från 21 kl. 15 UTC till 22 kl. 15 UTC
Vind 18 kt från väst
Sikt 10 km eller mer
Brutna moln på en höjd av 4500 ft
Blir
från 21 kl. 18 UTC till 21 kl. 20 UTC
Vind 5 kt från väst/nordväst
Blir
från 22 kl. 04 UTC till 22 kl. 06 UTC
Mulet på en höjd av 500 ft
Blir
från 22 kl. 06 UTC till 22 kl. 08 UTC
Brutna moln på en höjd av 2000 ft

TAF: EFHK 211431Z 2115/2215 28018KT 9999 BKN045 BECMG 2118/2120 30005KT BECMG 2204/2206 OVC005 BECMG 2206/2208 BKN020

Aktuella väderrapporter och prognoser från 4000 flygplatser (METAR- och TAF-rapporter).

De tillgängliga stationerna syns som gula och röda prickar på kartan.

För musen över prickarna för att se namnen på stationerna.

Klicka sedan för att få väderrapporter och prognoser.

För att ändra kartan: Klicka på de gröna knapparna med ett svart kors på för att zooma in; den gröna knappen med ett streck på för att zooma ut; eller på de gröna pilarna för angränsande kartor.


METAR-TAF: